Time;durP1;ratioP1;P1;durP2;ratioP2;P2;SDS_P1;SDS_P2;PMS_P1;PMS_P2;Temp;Humidity;BMP_temperature;BMP_pressure;BME280_temperature;BME280_humidity;BME280_pressure;Samples;Min_cycle;Max_cycle;Signal;HPM_P1;HPM_P2
2022/08/30 00:03:15;;;;;;;35.23;20.50;;;;;;;18.91;62.37;100558.90;1656120;86;21324;-57
2022/08/30 00:06:23;;;;;;;43.90;28.98;;;;;;;18.93;62.52;100554.52;1651046;85;21280;-57
2022/08/30 00:09:28;;;;;;;36.50;22.65;;;;;;;18.95;62.60;100556.50;1621283;88;21783;-57
2022/08/30 00:12:34;;;;;;;28.05;17.57;;;;;;;18.95;62.67;100555.97;1621903;88;21302;-58
2022/08/30 00:15:41;;;;;;;29.60;19.17;;;;;;;18.93;62.64;100565.05;1621738;88;21258;-58
2022/08/30 00:18:48;;;;;;;28.98;19.80;;;;;;;18.91;62.70;100558.90;1651832;86;21274;-58
2022/08/30 00:21:56;;;;;;;28.25;18.57;;;;;;;18.87;62.70;100564.58;1621706;88;21219;-58
2022/08/30 00:25:02;;;;;;;29.87;18.32;;;;;;;18.85;62.74;100568.10;1621694;88;21243;-58
2022/08/30 00:28:08;;;;;;;29.15;18.32;;;;;;;18.83;62.85;100562.48;1651711;87;21263;-58
2022/08/30 00:31:15;;;;;;;24.23;18.05;;;;;;;18.82;63.00;100566.34;1621861;88;21222;-56
2022/08/30 00:34:20;;;;;;;25.95;18.60;;;;;;;18.82;63.15;100571.33;1619195;88;21304;-58
2022/08/30 00:37:26;;;;;;;29.02;18.27;;;;;;;18.80;63.19;100564.32;1651509;87;21227;-57
2022/08/30 00:40:32;;;;;;;26.33;18.37;;;;;;;18.76;63.27;100561.13;1621483;88;21211;-57
2022/08/30 00:43:39;;;;;;;29.72;18.10;;;;;;;18.75;63.33;100562.22;1621674;88;21296;-58
2022/08/30 00:46:45;;;;;;;27.42;17.65;;;;;;;18.71;63.32;100563.73;1621501;88;21258;-58
2022/08/30 00:49:54;;;;;;;27.27;17.67;;;;;;;18.68;63.41;100557.80;1651872;87;21211;-58
2022/08/30 00:53:04;;;;;;;27.40;18.00;;;;;;;18.66;63.48;100565.48;1651765;87;21239;-57
2022/08/30 00:56:10;;;;;;;38.23;18.12;;;;;;;18.63;63.48;100561.78;1635186;87;21244;-57
2022/08/30 00:59:16;;;;;;;30.77;17.80;;;;;;;18.60;63.59;100565.83;1621409;88;21250;-59
2022/08/30 01:02:24;;;;;;;27.37;16.90;;;;;;;18.56;63.62;100555.41;1651753;87;21302;-57
2022/08/30 01:05:31;;;;;;;25.17;17.07;;;;;;;18.53;63.61;100560.02;1650942;87;21210;-58
2022/08/30 01:08:37;;;;;;;24.43;17.20;;;;;;;18.48;63.77;100559.31;1666401;82;21230;-57
2022/08/30 01:11:44;;;;;;;24.70;16.40;;;;;;;18.48;63.91;100555.16;1647349;87;21285;-58
2022/08/30 01:14:51;;;;;;;26.02;17.25;;;;;;;18.45;63.95;100554.21;1678615;85;21396;-57
2022/08/30 01:17:57;;;;;;;21.70;17.65;;;;;;;18.40;63.95;100552.64;1647404;87;21282;-58
2022/08/30 01:21:34;;;;;;;24.47;16.23;;;;;;;18.39;64.08;100553.72;1680085;85;21226;-58
2022/08/30 01:24:40;;;;;;;25.45;16.40;;;;;;;18.37;64.11;100548.03;1678442;85;21229;-57
2022/08/30 01:27:53;;;;;;;24.77;17.07;;;;;;;18.35;64.16;100564.03;1647240;87;21278;-57
2022/08/30 01:30:58;;;;;;;23.57;16.23;;;;;;;18.34;64.30;100559.57;1647543;87;21591;-58
2022/08/30 01:34:06;;;;;;;23.22;17.45;;;;;;;18.32;64.49;100545.94;1678503;85;21273;-57
2022/08/30 01:37:14;;;;;;;23.67;17.32;;;;;;;18.33;64.60;100550.39;1658726;85;21427;-57
2022/08/30 01:40:21;;;;;;;21.75;16.00;;;;;;;18.32;64.70;100547.31;1647285;87;21262;-58
2022/08/30 01:43:27;;;;;;;21.05;16.00;;;;;;;18.33;64.77;100555.94;1678471;85;21234;-58
2022/08/30 01:46:38;;;;;;;20.95;16.00;;;;;;;18.32;64.88;100557.02;1647412;87;21225;-59
2022/08/30 01:49:45;;;;;;;23.55;16.35;;;;;;;18.29;64.91;100551.92;1678503;85;21206;-58
2022/08/30 01:52:52;;;;;;;22.20;16.65;;;;;;;18.28;64.94;100565.48;1647509;87;21301;-58
2022/08/30 01:55:57;;;;;;;23.10;16.40;;;;;;;18.26;65.03;100562.07;1678693;85;21188;-58
2022/08/30 01:59:03;;;;;;;28.70;18.02;;;;;;;18.25;65.13;100557.58;1647425;87;21222;-58
2022/08/30 02:02:11;;;;;;;28.38;16.20;;;;;;;18.23;65.11;100552.81;1678470;85;21289;-58
2022/08/30 02:05:18;;;;;;;24.25;16.25;;;;;;;18.21;65.17;100551.31;1647528;87;21191;-58
2022/08/30 02:08:24;;;;;;;24.15;17.10;;;;;;;18.19;65.19;100550.16;1678532;84;21372;-58
2022/08/30 02:11:31;;;;;;;22.42;15.45;;;;;;;18.13;65.08;100551.05;1682218;85;21273;-57
2022/08/30 02:14:36;;;;;;;23.65;16.57;;;;;;;18.10;65.11;100548.72;1651796;87;21219;-58
2022/08/30 02:17:43;;;;;;;24.70;17.30;;;;;;;18.08;65.22;100546.69;1683519;84;21656;-58
2022/08/30 02:20:49;;;;;;;22.73;16.37;;;;;;;18.05;65.26;100537.97;1651653;87;21229;-57
2022/08/30 02:23:56;;;;;;;24.37;16.75;;;;;;;18.04;65.41;100541.82;1682238;85;21277;-56
2022/08/30 02:27:03;;;;;;;23.57;16.87;;;;;;;18.03;65.55;100545.11;1651763;87;21218;-57
2022/08/30 02:30:10;;;;;;;24.77;16.62;;;;;;;18.00;65.52;100542.78;1649220;87;21260;-57
2022/08/30 02:33:15;;;;;;;26.55;17.42;;;;;;;17.99;65.56;100538.85;1651575;87;21246;-57
2022/08/30 02:36:21;;;;;;;21.37;16.60;;;;;;;17.98;65.67;100539.94;1649562;87;21300;-57
2022/08/30 02:39:27;;;;;;;28.42;18.12;;;;;;;17.99;65.79;100538.85;1651180;87;21841;-57
2022/08/30 02:42:32;;;;;;;24.23;16.85;;;;;;;18.01;65.93;100543.65;1651774;87;21218;-56
2022/08/30 02:45:39;;;;;;;24.60;17.45;;;;;;;18.03;66.07;100543.73;1649635;87;21358;-57
2022/08/30 02:48:45;;;;;;;20.08;15.75;;;;;;;18.05;66.12;100548.52;1651510;87;21238;-57
2022/08/30 02:51:51;;;;;;;22.67;16.40;;;;;;;18.03;66.06;100544.28;1681663;85;21207;-58
2022/08/30 02:54:58;;;;;;;28.20;16.82;;;;;;;18.03;66.09;100547.05;1653931;87;21197;-58
2022/08/30 02:58:04;;;;;;;26.85;16.85;;;;;;;18.00;66.12;100555.81;1651077;87;21430;-58
2022/08/30 03:01:09;;;;;;;22.10;16.40;;;;;;;18.01;66.24;100568.05;1682719;85;21229;-57
2022/08/30 03:04:14;;;;;;;53.40;33.58;;;;;;;18.03;66.33;100570.05;1651699;87;21238;-57
2022/08/30 03:07:22;;;;;;;70.47;41.53;;;;;;;18.04;66.41;100572.30;1683017;85;21242;-58
2022/08/30 03:10:28;;;;;;;62.58;41.18;;;;;;;18.05;66.46;100575.37;1650756;86;21278;-57
2022/08/30 03:13:34;;;;;;;78.70;51.53;;;;;;;18.05;66.48;100576.75;1682066;85;21242;-58
2022/08/30 03:16:41;;;;;;;58.50;36.60;;;;;;;18.03;66.38;100582.52;1651845;87;21202;-58
2022/08/30 03:19:47;;;;;;;63.60;39.45;;;;;;;18.00;66.25;100588.50;1681951;85;21234;-57
2022/08/30 03:22:53;;;;;;;48.35;33.48;;;;;;;18.00;66.29;100591.27;1682942;85;21301;-58
2022/08/30 03:25:59;;;;;;;48.65;31.97;;;;;;;17.98;66.30;100590.66;1651790;87;21278;-57
2022/08/30 03:29:11;;;;;;;38.42;25.80;;;;;;;17.99;66.29;100595.64;1683144;85;21388;-58
2022/08/30 03:32:21;;;;;;;33.13;20.80;;;;;;;17.98;66.36;100597.59;1684243;83;21249;-58
2022/08/30 03:35:28;;;;;;;29.00;18.10;;;;;;;18.03;66.52;100599.70;1684239;85;21233;-58
2022/08/30 03:38:33;;;;;;;26.60;18.42;;;;;;;18.08;66.66;100595.70;1652445;87;21301;-59
2022/08/30 03:41:40;;;;;;;25.27;18.50;;;;;;;18.14;66.78;100601.23;1683370;85;21301;-58
2022/08/30 03:44:51;;;;;;;28.20;18.48;;;;;;;18.21;66.89;100600.68;1652399;87;21273;-59
2022/08/30 03:47:56;;;;;;;30.23;19.15;;;;;;;18.29;66.96;100601.81;1683547;85;21623;-59
2022/08/30 03:51:05;;;;;;;36.33;20.88;;;;;;;18.38;67.05;100608.83;1652531;87;21253;-56
2022/08/30 03:54:13;;;;;;;36.77;24.57;;;;;;;18.48;67.09;100614.77;1683230;85;21292;-58
2022/08/30 03:57:20;;;;;;;39.50;25.62;;;;;;;18.58;67.13;100605.44;1652305;87;21265;-58
2022/08/30 04:00:25;;;;;;;40.90;25.43;;;;;;;18.66;67.13;100606.53;1683096;85;21213;-58
2022/08/30 04:03:34;;;;;;;36.80;23.70;;;;;;;18.74;67.13;100616.53;1682267;85;21277;-57
2022/08/30 04:06:50;;;;;;;33.10;21.82;;;;;;;18.81;67.17;100623.73;1686410;84;21758;-58
2022/08/30 04:09:55;;;;;;;37.13;23.02;;;;;;;18.89;67.20;100620.70;1672427;86;21824;-57
2022/08/30 04:13:02;;;;;;;35.70;21.75;;;;;;;18.96;67.23;100616.48;1685228;84;21224;-57
2022/08/30 04:16:09;;;;;;;35.50;23.05;;;;;;;19.04;67.21;100621.20;1687488;85;21192;-56
2022/08/30 04:19:15;;;;;;;33.75;21.40;;;;;;;19.11;67.21;100622.02;1718089;83;21236;-56
2022/08/30 04:22:20;;;;;;;31.68;21.97;;;;;;;19.16;67.21;100619.42;1719530;83;21291;-56
2022/08/30 04:25:27;;;;;;;30.27;20.75;;;;;;;19.23;67.23;100614.66;1687789;85;21212;-56
2022/08/30 04:28:34;;;;;;;38.28;22.82;;;;;;;19.31;67.27;100615.80;1705244;83;21858;-56
2022/08/30 04:31:39;;;;;;;34.15;22.62;;;;;;;19.42;67.30;100621.70;1688470;84;21216;-57
2022/08/30 04:34:46;;;;;;;32.23;21.62;;;;;;;19.51;67.28;100615.63;1688463;85;21327;-58
2022/08/30 04:37:53;;;;;;;33.48;21.68;;;;;;;19.60;67.28;100618.41;1688429;85;21409;-55
2022/08/30 04:41:00;;;;;;;31.37;21.17;;;;;;;19.68;67.25;100618.12;1687917;85;21239;-59
2022/08/30 04:44:07;;;;;;;33.30;21.52;;;;;;;19.76;67.25;100623.91;1687263;84;21233;-58
2022/08/30 04:47:17;;;;;;;32.83;21.12;;;;;;;19.83;67.30;100621.92;1725682;82;21220;-58
2022/08/30 04:50:26;;;;;;;32.83;20.05;;;;;;;19.92;67.34;100620.53;1720603;83;21206;-57
2022/08/30 04:53:34;;;;;;;27.48;18.65;;;;;;;20.02;67.33;100624.50;1719343;82;21895;-58
2022/08/30 04:56:42;;;;;;;27.30;18.82;;;;;;;20.12;67.33;100622.00;1687069;85;21236;-57
2022/08/30 04:59:49;;;;;;;24.43;18.15;;;;;;;20.22;67.33;100625.66;1686700;83;21227;-58
2022/08/30 05:02:55;;;;;;;30.92;19.07;;;;;;;20.32;67.38;100626.83;1724114;83;21213;-57
2022/08/30 05:06:00;;;;;;;30.68;18.65;;;;;;;20.44;67.43;100623.56;1721510;82;21234;-57
2022/08/30 05:09:06;;;;;;;36.30;19.12;;;;;;;20.56;67.47;100629.19;1685192;83;21228;-56
2022/08/30 05:12:12;;;;;;;27.22;18.42;;;;;;;20.66;67.45;100628.92;1717831;81;21271;-58
2022/08/30 05:15:19;;;;;;;30.40;18.65;;;;;;;20.75;67.47;100633.10;1645193;87;21301;-58
2022/08/30 05:18:25;;;;;;;23.62;16.97;;;;;;;20.87;67.52;100635.91;1649882;85;21301;-58
2022/08/30 05:21:43;;;;;;;26.80;17.85;;;;;;;20.97;67.56;100632.58;1706033;82;21731;-57
2022/08/30 05:24:52;;;;;;;31.12;18.90;;;;;;;21.09;67.60;100639.05;1672150;85;21291;-57
2022/08/30 05:28:04;;;;;;;34.33;18.37;;;;;;;21.21;67.63;100639.92;1659342;85;21546;-57
2022/08/30 05:31:34;;;;;;;25.88;17.92;;;;;;;21.31;67.65;100635.45;1660589;84;22118;-58
2022/08/30 05:34:49;;;;;;;23.30;18.05;;;;;;;21.43;67.69;100637.73;1684634;84;21735;-57
2022/08/30 05:37:56;;;;;;;24.15;18.07;;;;;;;21.55;67.72;100638.58;1679416;84;21250;-58
2022/08/30 05:41:01;;;;;;;26.80;17.62;;;;;;;21.66;67.75;100630.77;1680161;85;21230;-58
2022/08/30 05:44:09;;;;;;;28.10;17.82;;;;;;;21.78;67.77;100637.24;1674750;85;21298;-57
2022/08/30 05:47:20;;;;;;;24.67;18.60;;;;;;;21.90;67.82;100635.83;1667327;83;21251;-57
2022/08/30 05:50:35;;;;;;;27.45;18.55;;;;;;;22.02;67.84;100636.69;1707987;84;21247;-57
2022/08/30 05:53:42;;;;;;;22.48;17.48;;;;;;;22.16;67.95;100634.79;1659814;84;21223;-57
2022/08/30 05:56:49;;;;;;;25.12;17.17;;;;;;;22.32;68.11;100640.14;1687581;83;21675;-56
2022/08/30 05:59:55;;;;;;;26.12;15.83;;;;;;;22.50;68.25;100640.53;1661550;84;21188;-57
2022/08/30 06:03:04;;;;;;;24.25;16.57;;;;;;;22.64;68.32;100647.02;1672129;83;21217;-57
2022/08/30 06:06:10;;;;;;;26.60;17.15;;;;;;;22.78;68.35;100649.80;1646013;86;21226;-57
2022/08/30 06:09:16;;;;;;;23.87;15.98;;;;;;;22.92;68.40;100655.39;1664543;84;21339;-57
2022/08/30 06:12:22;;;;;;;21.73;16.23;;;;;;;23.07;68.38;100662.64;1652167;85;21243;-56
2022/08/30 06:15:29;;;;;;;24.92;16.12;;;;;;;23.20;68.34;100650.31;1672669;84;21235;-57
2022/08/30 06:18:36;;;;;;;26.97;16.93;;;;;;;23.33;68.34;100651.42;1675277;83;21832;-56
2022/08/30 06:21:43;;;;;;;21.23;17.17;;;;;;;23.46;68.32;100650.56;1664868;85;21210;-58
2022/08/30 06:24:49;;;;;;;28.07;17.00;;;;;;;23.57;68.29;100651.57;1637618;87;21686;-55
2022/08/30 06:27:59;;;;;;;26.25;17.37;;;;;;;23.70;68.22;100659.62;1637757;86;21253;-56
2022/08/30 06:31:14;;;;;;;22.80;16.48;;;;;;;23.80;68.11;100644.96;1669845;84;21274;-58
2022/08/30 06:34:27;;;;;;;24.32;16.75;;;;;;;23.90;68.01;100647.89;1667554;84;21804;-58
2022/08/30 06:38:02;;;;;;;23.80;16.55;;;;;;;24.02;67.98;100647.29;1627592;86;21290;-58
2022/08/30 06:41:19;;;;;;;22.62;15.80;;;;;;;24.14;67.95;100641.02;1612935;87;21748;-56
2022/08/30 06:44:25;;;;;;;28.65;15.85;;;;;;;24.23;67.92;100643.11;1662729;85;21242;-57
2022/08/30 06:47:32;;;;;;;19.90;15.60;;;;;;;24.33;67.88;100641.01;1665155;85;21280;-56
2022/08/30 06:50:43;;;;;;;23.62;16.52;;;;;;;24.41;67.82;100637.22;1651363;84;21745;-57
2022/08/30 06:53:52;;;;;;;23.40;15.68;;;;;;;24.50;67.79;100635.65;1609267;89;21259;-58
2022/08/30 06:56:58;;;;;;;24.72;15.68;;;;;;;24.61;67.77;100634.66;1640783;84;21232;-56
2022/08/30 07:00:07;;;;;;;21.68;15.55;;;;;;;24.71;67.69;100633.43;1685001;84;21301;-56
2022/08/30 07:03:14;;;;;;;24.77;16.02;;;;;;;24.78;67.64;100628.45;1661626;85;21804;-56
2022/08/30 07:06:22;;;;;;;25.08;16.17;;;;;;;24.88;67.62;100631.38;1640471;86;21268;-57
2022/08/30 07:09:31;;;;;;;21.35;16.02;;;;;;;24.98;67.60;100637.10;1647115;85;21219;-55
2022/08/30 07:12:40;;;;;;;25.48;16.62;;;;;;;25.10;67.56;100633.30;1601142;88;21228;-58
2022/08/30 07:15:56;;;;;;;20.15;14.65;;;;;;;25.20;67.54;100626.41;1627227;86;21339;-57
2022/08/30 07:23:32;;;;;;;21.85;15.30;;;;;;;25.47;67.58;100629.47;1656483;85;21813;-57
2022/08/30 07:26:48;;;;;;;17.67;12.75;;;;;;;25.62;67.51;100630.16;1681399;84;21961;-59
2022/08/30 07:30:32;;;;;;;18.85;12.65;;;;;;;25.76;67.48;100629.98;1663287;85;21659;-57
2022/08/30 07:33:39;;;;;;;19.45;12.93;;;;;;;25.90;67.42;100622.24;1642006;86;21220;-57
2022/08/30 07:36:47;;;;;;;18.45;12.50;;;;;;;26.03;67.41;100627.97;1635505;86;21223;-56
2022/08/30 07:39:54;;;;;;;14.85;11.28;;;;;;;26.15;67.32;100622.42;1627674;86;21248;-56
2022/08/30 07:43:03;;;;;;;16.07;11.10;;;;;;;26.28;67.22;100630.92;1659069;85;21885;-58
2022/08/30 07:46:13;;;;;;;19.35;10.95;;;;;;;26.41;67.11;100634.09;1605714;87;21240;-57
2022/08/30 07:49:19;;;;;;;14.33;10.08;;;;;;;26.54;66.92;100633.30;1603338;89;21214;-58
2022/08/30 07:52:26;;;;;;;15.75;10.35;;;;;;;26.64;66.73;100632.80;1629761;86;21244;-58
2022/08/30 07:55:33;;;;;;;18.87;10.93;;;;;;;26.73;66.58;100631.17;1614706;87;21529;-57
2022/08/30 07:58:40;;;;;;;14.70;10.75;;;;;;;26.84;66.46;100640.47;1630117;86;21262;-57
2022/08/30 08:01:47;;;;;;;15.75;10.28;;;;;;;26.94;66.29;100627.86;1654194;86;21311;-58
2022/08/30 08:04:54;;;;;;;18.23;11.08;;;;;;;27.02;66.19;100633.77;1669504;86;21776;-58
2022/08/30 08:08:11;;;;;;;18.50;10.43;;;;;;;27.11;66.02;100627.05;1651211;85;21228;-58
2022/08/30 08:14:58;;;;;;;15.13;10.38;;;;;;;27.29;65.73;100625.97;1579240;88;22538;-59
2022/08/30 08:18:06;;;;;;;15.88;10.50;;;;;;;27.39;65.63;100631.61;1609477;87;21231;-59
2022/08/30 08:21:11;;;;;;;17.77;11.43;;;;;;;27.48;65.47;100621.48;1584707;89;21227;-59
2022/08/30 08:24:19;;;;;;;16.35;10.82;;;;;;;27.55;65.30;100623.47;1593425;89;21670;-56
2022/08/30 08:27:25;;;;;;;16.67;9.90;;;;;;;27.65;65.21;100615.59;1585083;88;21254;-57
2022/08/30 08:30:32;;;;;;;17.12;10.50;;;;;;;27.75;65.06;100622.04;1630273;87;21355;-58
2022/08/30 08:40:25;;;;;;;14.78;9.90;;;;;;;28.06;64.61;100607.95;1692297;83;21748;-57
2022/08/30 08:43:40;;;;;;;17.10;9.38;;;;;;;28.17;64.52;100605.39;1647034;85;21251;-55
2022/08/30 08:47:07;;;;;;;13.18;10.80;;;;;;;28.27;64.35;100604.81;1686886;85;21240;-54
2022/08/30 08:50:20;;;;;;;18.62;10.60;;;;;;;28.36;64.12;100610.13;1697296;83;21274;-56
2022/08/30 08:53:35;;;;;;;17.07;9.68;;;;;;;28.46;63.91;100607.83;1694774;83;21479;-57
2022/08/30 08:56:43;;;;;;;13.53;9.20;;;;;;;28.55;63.77;100604.16;1738225;81;21175;-58
2022/08/30 08:59:53;;;;;;;13.88;9.20;;;;;;;28.65;63.54;100601.31;1688649;84;21788;-55
2022/08/30 09:03:06;;;;;;;17.27;9.90;;;;;;;28.73;63.32;100592.80;1743638;81;21655;-56
2022/08/30 09:06:33;;;;;;;16.45;9.45;;;;;;;28.81;63.16;100589.38;1741088;82;21214;-57
2022/08/30 09:09:45;;;;;;;14.58;9.50;;;;;;;28.90;62.93;100590.45;1696200;83;21208;-58
2022/08/30 09:12:52;;;;;;;15.75;9.43;;;;;;;29.01;62.76;100593.47;1697339;83;21728;-58
2022/08/30 09:16:04;;;;;;;14.10;10.53;;;;;;;29.09;62.49;100589.52;1690271;84;21199;-59
2022/08/30 09:19:11;;;;;;;16.62;9.00;;;;;;;29.15;62.28;100584.11;1713064;82;21771;-58
2022/08/30 09:22:42;;;;;;;11.80;8.83;;;;;;;29.27;62.15;100585.72;1697479;83;21258;-58
2022/08/30 09:26:08;;;;;;;14.33;9.48;;;;;;;29.35;61.92;100583.67;1713489;83;21278;-58
2022/08/30 09:29:19;;;;;;;11.95;8.43;;;;;;;29.43;61.68;100585.28;1711286;83;21830;-58
2022/08/30 09:32:45;;;;;;;18.05;9.60;;;;;;;29.50;61.42;100587.77;1728874;80;21812;-58
2022/08/30 09:35:56;;;;;;;12.40;8.83;;;;;;;29.56;61.15;100585.20;1752645;81;21182;-59
2022/08/30 09:39:08;;;;;;;14.35;9.10;;;;;;;29.63;60.97;100595.00;1746785;80;21795;-59
2022/08/30 09:42:27;;;;;;;14.00;9.25;;;;;;;29.72;60.73;100583.92;1755428;80;21195;-59
2022/08/30 09:45:40;;;;;;;14.55;9.48;;;;;;;29.79;60.51;100585.84;1756384;81;21183;-58
2022/08/30 09:48:49;;;;;;;14.28;9.35;;;;;;;29.85;60.32;100582.67;1754680;81;21214;-59
2022/08/30 09:52:14;;;;;;;14.83;9.73;;;;;;;29.89;60.04;100580.11;1758943;79;21169;-59
2022/08/30 09:55:30;;;;;;;18.52;9.95;;;;;;;29.96;59.82;100584.25;1757300;81;21174;-54
2022/08/30 09:58:47;;;;;;;15.13;9.75;;;;;;;30.03;59.58;100583.31;1750835;81;21258;-55
2022/08/30 10:02:14;;;;;;;13.78;9.33;;;;;;;30.09;59.32;100577.05;1737154;81;21631;-56
2022/08/30 10:05:49;;;;;;;13.03;9.60;;;;;;;30.16;59.10;100582.61;1771995;80;21186;-57
2022/08/30 10:09:18;;;;;;;13.32;10.03;;;;;;;30.22;58.86;100580.61;1762607;80;21263;-57
2022/08/30 10:12:30;;;;;;;16.57;10.20;;;;;;;30.30;58.61;100578.54;1766091;80;21929;-55
2022/08/30 10:16:06;;;;;;;15.23;10.25;;;;;;;30.40;58.41;100578.39;1764112;81;21238;-57
2022/08/30 10:19:31;;;;;;;20.35;10.40;;;;;;;30.56;58.00;100585.53;1760546;80;21220;-56
2022/08/30 10:22:41;;;;;;;12.98;10.13;;;;;;;30.56;58.00;100585.53;1766983;80;21289;-54
2022/08/30 10:26:01;;;;;;;14.63;9.85;;;;;;;30.64;57.29;100574.97;1770346;81;21177;-56
2022/08/30 10:29:24;;;;;;;14.43;10.60;;;;;;;30.70;57.19;100574.34;1772775;79;21770;-57
2022/08/30 10:32:44;;;;;;;15.10;10.38;;;;;;;30.70;57.19;100574.34;1770240;80;21214;-57
2022/08/30 10:35:59;;;;;;;14.38;10.23;;;;;;;30.78;56.79;100574.52;1771066;80;21171;-57
2022/08/30 10:39:12;;;;;;;20.43;11.78;;;;;;;30.72;56.07;100571.47;1769725;80;22071;-57
2022/08/30 10:42:24;;;;;;;16.27;12.33;;;;;;;30.75;56.07;100565.20;1764011;78;21206;-56
2022/08/30 10:45:32;;;;;;;17.92;12.40;;;;;;;30.75;56.07;100565.20;1759334;81;21167;-54
2022/08/30 10:48:45;;;;;;;18.73;13.38;;;;;;;30.82;55.87;100560.62;1754884;80;21304;-54
2022/08/30 10:52:19;;;;;;;16.23;12.23;;;;;;;31.00;55.39;100564.03;1757444;81;21195;-55
2022/08/30 10:55:30;;;;;;;;;;;;;;;31.00;55.39;100564.03;1761360;80;21210;-56
2022/08/30 10:58:38;;;;;;;19.37;12.50;;;;;;;31.10;55.23;100553.95;1766940;80;20252;-56
2022/08/30 11:02:14;;;;;;;20.25;13.50;;;;;;;31.16;54.99;100557.00;1807128;78;21164;-55
2022/08/30 11:05:33;;;;;;;23.15;14.25;;;;;;;31.25;54.76;100560.80;1814837;77;21181;-54
2022/08/30 11:09:07;;;;;;;26.00;15.00;;;;;;;31.28;54.38;100560.19;1787635;77;21202;-56
2022/08/30 11:12:43;;;;;;;18.57;13.08;;;;;;;31.32;54.17;100552.20;1820024;77;21726;-54
2022/08/30 11:16:16;;;;;;;17.07;12.18;;;;;;;31.49;54.12;100547.41;1703823;83;21285;-58
2022/08/30 11:19:45;;;;;;;17.00;11.75;;;;;;;31.64;53.87;100547.12;1828072;77;21244;-58
2022/08/30 11:22:53;;;;;;;17.42;11.80;;;;;;;31.79;53.55;100539.77;1754562;81;21218;-54
2022/08/30 11:26:14;;;;;;;14.10;10.28;;;;;;;31.80;53.16;100540.02;1755726;80;21238;-54
2022/08/30 11:29:44;;;;;;;16.17;10.30;;;;;;;31.79;52.88;100532.69;1752985;80;21175;-54
2022/08/30 11:33:21;;;;;;;13.72;9.78;;;;;;;31.87;52.72;100534.84;1753205;81;21222;-57
2022/08/30 11:36:43;;;;;;;14.50;10.05;;;;;;;32.00;52.44;100529.73;1735374;80;21719;-59
2022/08/30 11:39:57;;;;;;;12.23;8.68;;;;;;;32.05;52.14;100544.41;1778662;80;21792;-58
2022/08/30 11:43:20;;;;;;;16.40;9.03;;;;;;;32.03;51.80;100528.54;1777567;78;21185;-60
2022/08/30 11:46:38;;;;;;;14.45;8.55;;;;;;;32.07;51.60;100530.74;1775775;79;21592;-59
2022/08/30 11:50:02;;;;;;;11.57;7.50;;;;;;;32.16;51.43;100521.20;1777769;78;21201;-58
2022/08/30 11:53:51;;;;;;;15.23;8.48;;;;;;;32.22;51.16;100525.63;1771115;79;21225;-59
2022/08/30 11:57:36;;;;;;;12.78;7.97;;;;;;;32.28;50.87;100518.69;1773796;77;21173;-58
2022/08/30 12:00:49;;;;;;;9.65;7.35;;;;;;;32.32;50.57;100521.73;1789588;80;21192;-58
2022/08/30 12:04:16;;;;;;;11.33;7.60;;;;;;;32.27;50.18;100522.66;1807809;78;21365;-58
2022/08/30 12:07:59;;;;;;;10.95;7.67;;;;;;;32.12;49.92;100522.99;1823926;77;21253;-60
2022/08/30 12:11:10;;;;;;;10.68;7.55;;;;;;;32.11;49.79;100518.49;1808869;79;21184;-58
2022/08/30 12:14:16;;;;;;;11.33;7.30;;;;;;;32.18;49.60;100523.14;1806126;78;21195;-58
2022/08/30 12:21:32;;;;;;;10.25;6.70;;;;;;;32.18;49.05;100514.64;1817199;78;21590;-58
2022/08/30 12:24:40;;;;;;;;;;;;;;;32.13;48.71;100513.92;1816551;78;22022;-58
2022/08/30 12:27:46;;;;;;;10.25;6.78;;;;;;;32.11;48.52;100508.58;1816249;77;20212;-57
2022/08/30 12:30:52;;;;;;;10.50;6.85;;;;;;;32.14;48.32;100510.78;1819473;78;21232;-57
2022/08/30 12:34:02;;;;;;;9.40;6.17;;;;;;;32.18;48.14;100507.56;1840411;77;21357;-59
2022/08/30 12:37:29;;;;;;;7.95;6.47;;;;;;;32.13;47.84;100511.91;1817398;76;21685;-59
2022/08/30 12:40:38;;;;;;;8.30;6.12;;;;;;;31.99;47.52;100506.26;1831393;77;21791;-58
2022/08/30 12:43:52;;;;;;;8.33;6.58;;;;;;;31.88;47.31;100502.52;1803531;77;21179;-58
2022/08/30 12:47:06;;;;;;;9.95;6.37;;;;;;;31.87;47.27;100503.08;1759261;79;22017;-56
2022/08/30 12:50:15;;;;;;;10.35;6.10;;;;;;;31.94;47.11;100495.59;1776857;79;21243;-58
2022/08/30 12:53:21;;;;;;;10.08;6.37;;;;;;;31.95;46.89;100498.11;1712986;82;21515;-58
2022/08/30 12:56:37;;;;;;;10.63;6.53;;;;;;;31.91;46.66;100498.48;1729892;81;21272;-58
2022/08/30 12:59:56;;;;;;;9.35;6.45;;;;;;;31.88;46.49;100490.63;1748121;80;21248;-58
2022/08/30 13:03:05;;;;;;;10.13;6.10;;;;;;;31.87;46.34;100489.52;1745517;80;21559;-58
2022/08/30 13:06:13;;;;;;;11.55;6.35;;;;;;;31.83;46.17;100487.85;1744334;81;21243;-58
2022/08/30 13:09:30;;;;;;;10.55;6.42;;;;;;;31.84;46.04;100490.16;1735306;82;21232;-58
2022/08/30 13:12:40;;;;;;;12.95;6.60;;;;;;;31.78;45.82;100489.36;1718814;82;21168;-61
2022/08/30 13:15:59;;;;;;;;;;;;;;;31.74;45.71;100477.00;1788075;79;21215;-58
2022/08/30 13:19:47;;;;;;;13.08;6.22;;;;;;;31.73;45.60;100475.90;1796755;77;20758;-59
2022/08/30 13:23:16;;;;;;;11.28;6.53;;;;;;;31.73;45.47;100471.66;1757761;80;21778;-57
2022/08/30 13:26:26;;;;;;;9.23;5.78;;;;;;;31.73;45.29;100468.81;1753810;80;21236;-60
2022/08/30 13:29:35;;;;;;;8.03;5.65;;;;;;;31.71;45.11;100467.69;1741756;80;21193;-57
2022/08/30 13:32:45;;;;;;;12.68;5.70;;;;;;;31.68;44.95;100469.73;1736088;80;21216;-57
2022/08/30 13:35:54;;;;;;;8.47;6.00;;;;;;;31.67;44.81;100469.48;1737786;80;21776;-51
2022/08/30 13:39:01;;;;;;;9.15;5.47;;;;;;;31.65;44.65;100462.47;1746152;80;21220;-57
2022/08/30 13:42:09;;;;;;;7.22;5.42;;;;;;;31.63;44.48;100457.69;1748553;80;21199;-56
2022/08/30 13:45:19;;;;;;;26.52;7.78;;;;;;;31.58;44.31;100460.05;1779493;79;21786;-56
2022/08/30 13:48:26;;;;;;;7.85;5.60;;;;;;;31.55;44.20;100456.98;1790061;78;21741;-57
2022/08/30 13:51:33;;;;;;;7.67;5.87;;;;;;;31.54;44.07;100449.66;1792109;79;21182;-57
2022/08/30 13:54:42;;;;;;;7.58;5.58;;;;;;;31.53;43.95;100447.96;1778703;78;21762;-56
2022/08/30 13:57:51;;;;;;;9.78;5.80;;;;;;;31.49;43.79;100447.73;1773691;79;21784;-56
2022/08/30 14:00:58;;;;;;;9.95;5.62;;;;;;;31.46;43.67;100434.21;1784677;78;21756;-55
2022/08/30 14:04:05;;;;;;;7.85;5.42;;;;;;;31.45;43.58;100437.36;1762340;80;21200;-56
2022/08/30 14:07:12;;;;;;;7.97;5.55;;;;;;;31.43;43.44;100431.19;1784797;78;21188;-56
2022/08/30 14:10:20;;;;;;;9.80;5.60;;;;;;;31.42;43.32;100426.66;1789374;78;21523;-57
2022/08/30 14:13:31;;;;;;;7.72;6.08;;;;;;;31.38;43.26;100429.87;1731264;80;22014;-56
2022/08/30 14:16:38;;;;;;;8.95;5.45;;;;;;;31.37;43.13;100425.34;1786030;78;21240;-56
2022/08/30 14:19:44;;;;;;;11.53;6.35;;;;;;;31.36;43.05;100427.92;1790812;79;21368;-57
2022/08/30 14:22:53;;;;;;;7.20;5.65;;;;;;;31.30;42.93;100422.06;1786914;78;21186;-57
2022/08/30 14:26:00;;;;;;;6.78;5.62;;;;;;;31.25;42.87;100416.49;1800143;79;21170;-56
2022/08/30 14:29:06;;;;;;;11.65;5.90;;;;;;;31.23;42.84;100412.56;1795777;78;21213;-55
2022/08/30 14:32:11;;;;;;;10.28;6.25;;;;;;;31.24;42.71;100420.48;1790581;78;21272;-56
2022/08/30 14:35:19;;;;;;;10.68;5.85;;;;;;;31.18;42.62;100421.14;1766270;79;21318;-55
2022/08/30 14:38:25;;;;;;;8.38;5.78;;;;;;;31.14;42.53;100418.69;1767687;79;21220;-56
2022/08/30 14:41:33;;;;;;;10.90;6.70;;;;;;;31.10;42.46;100413.37;1778146;79;21193;-56
2022/08/30 14:44:40;;;;;;;7.55;5.58;;;;;;;31.08;42.40;100407.77;1787963;78;21332;-57
2022/08/30 14:47:53;;;;;;;13.30;6.05;;;;;;;31.04;42.34;100410.37;1768964;79;21220;-57
2022/08/30 14:51:01;;;;;;;11.15;5.87;;;;;;;30.99;42.30;100401.12;1773655;78;21161;-56
2022/08/30 14:54:09;;;;;;;12.23;6.05;;;;;;;30.96;42.28;100398.91;1763617;79;21795;-56
2022/08/30 14:57:16;;;;;;;7.12;5.22;;;;;;;30.92;42.22;100401.52;1776395;78;21215;-57